Terminal Aerodrome Forecast
Issued by NWS Wakefield, VA

Home | Current Version | Previous Version | Text Only | Print | Product List | Glossary On
Versions: 1 2 3 4 5 6 7 8 9 10 11 12 13 14 15 16 17 18 19 20 21
891
FTUS41 KAKQ 301740
TAFRIC
TAF
KRIC 301740Z 3018/3118 15007KT P6SM SCT035 BKN050
      TEMPO 3018/3021 VRB15KT 3SM SHRA BKN025 OVC040
     FM302100 16008KT P6SM SCT035 BKN050
     FM310000 15003KT P6SM SCT120 BKN250
     FM310800 00000KT 4SM BR BKN250
     FM311300 22005KT P6SM BKN250=

USA.gov is the U.S. government's official web portal to all federal, state and local government web resources and services.